Time;durP1;ratioP1;P1;durP2;ratioP2;P2;SDS_P1;SDS_P2;PMS_P1;PMS_P2;Temp;Humidity;BMP_temperature;BMP_pressure;BME280_temperature;BME280_humidity;BME280_pressure;Samples;Min_cycle;Max_cycle;Signal;HPM_P1;HPM_P2
2021/07/20 00:17:28;;;;;;;8.20;6.57;;;15.80;90.70;;;;;;5938350;24;20183;-84
2021/07/20 01:41:17;;;;;;;10.63;7.20;;;15.10;96.80;;;;;;5864100;23;20184;-84
2021/07/20 02:54:11;;;;;;;13.63;8.00;;;15.10;99.20;;;;;;5765059;24;21077;-86
2021/07/20 03:33:09;;;;;;;10.97;7.73;;;16.10;95.50;;;;;;5915408;24;20183;-83
2021/07/20 04:27:40;;;;;;;10.90;5.73;;;18.00;91.10;;;;;;5769771;24;20446;-88
2021/07/20 04:37:43;;;;;;;9.03;5.33;;;18.30;90.80;;;;;;6091145;23;20774;-88
2021/07/20 04:42:03;;;;;;;10.10;5.67;;;18.50;90.70;;;;;;5954028;23;20322;-86
2021/07/20 06:11:03;;;;;;;9.47;5.03;;;20.50;89.20;;;;;;5902053;24;20255;-88
2021/07/20 09:14:12;;;;;;;3.22;2.70;;;23.00;77.50;;;;;;5740013;24;20541;-86
2021/07/20 10:23:22;;;;;;;3.08;2.35;;;24.30;73.70;;;;;;5732682;24;20450;-89
2021/07/20 10:58:15;;;;;;;3.85;2.65;;;24.80;73.40;;;;;;6057146;23;20194;31
2021/07/20 11:23:08;;;;;;;3.45;2.45;;;25.40;73.50;;;;;;5979916;23;20206;-88
2021/07/20 12:27:11;;;;;;;3.15;2.30;;;25.40;71.20;;;;;;5917330;24;20210;-87
2021/07/20 13:46:11;;;;;;;2.40;2.20;;;27.10;63.80;;;;;;5659465;25;20200;-85
2021/07/20 13:58:48;;;;;;;2.08;1.85;;;27.00;63.90;;;;;;5665461;25;20190;-89
2021/07/20 14:01:22;;;;;;;1.88;1.77;;;28.10;64.00;;;;;;5700994;25;20190;-86
2021/07/20 14:03:53;;;;;;;2.28;2.08;;;28.30;64.10;;;;;;5722402;25;20205;-88
2021/07/20 14:06:31;;;;;;;1.92;1.70;;;28.90;62.80;;;;;;5730071;24;20527;-86
2021/07/20 14:09:05;;;;;;;2.63;1.90;;;29.20;62.60;;;;;;5747922;24;20467;-88
2021/07/20 14:11:35;;;;;;;2.10;2.00;;;29.30;61.30;;;;;;5813157;24;20183;-86
2021/07/20 14:14:06;;;;;;;1.75;1.65;;;29.40;62.30;;;;;;5882489;24;20261;-88
2021/07/20 14:16:39;;;;;;;2.25;1.90;;;29.40;61.00;;;;;;5918667;24;20189;-87
2021/07/20 14:19:11;;;;;;;2.00;1.90;;;30.00;60.70;;;;;;5986332;23;20174;-87
2021/07/20 14:21:46;;;;;;;2.45;1.55;;;31.10;60.40;;;;;;6030589;23;20198;-85
2021/07/20 14:24:16;;;;;;;1.90;1.67;;;31.60;59.20;;;;;;6031448;23;20190;-87
2021/07/20 14:26:48;;;;;;;1.83;1.35;;;31.80;58.40;;;;;;6023612;23;20603;-87
2021/07/20 14:29:23;;;;;;;2.80;1.90;;;32.70;55.80;;;;;;6027725;23;20199;-84
2021/07/20 14:31:57;;;;;;;1.90;1.80;;;32.70;55.40;;;;;;6017916;23;20744;-87
2021/07/20 14:34:43;;;;;;;2.47;1.80;;;32.10;56.00;;;;;;5988862;23;20234;-85
2021/07/20 14:37:34;;;;;;;2.80;1.45;;;31.00;54.60;;;;;;5994866;23;20178;-87
2021/07/20 14:40:12;;;;;;;2.05;1.83;;;29.00;54.80;;;;;;6024672;23;20278;-86
2021/07/20 14:42:44;;;;;;;2.63;1.58;;;28.00;56.40;;;;;;6012444;23;20204;-89
2021/07/20 14:45:16;;;;;;;3.58;1.75;;;27.30;57.70;;;;;;6037461;23;20171;-88
2021/07/20 14:48:07;;;;;;;1.90;1.80;;;26.90;58.10;;;;;;6030992;23;20174;-88
2021/07/20 14:50:55;;;;;;;2.28;1.73;;;27.10;59.00;;;;;;6038628;23;20179;-87
2021/07/20 14:53:28;;;;;;;1.70;1.60;;;27.30;60.10;;;;;;6122792;23;20157;-88
2021/07/20 14:56:10;;;;;;;1.75;1.65;;;27.40;60.10;;;;;;6086752;23;20500;-89
2021/07/20 14:58:53;;;;;;;1.80;1.70;;;27.00;60.10;;;;;;6108965;23;21478;-93
2021/07/20 15:01:41;;;;;;;2.15;1.60;;;26.80;60.00;;;;;;6113344;23;20450;-88
2021/07/20 15:04:38;;;;;;;4.88;1.77;;;26.30;59.50;;;;;;6116499;23;20303;-88
2021/07/20 15:07:17;;;;;;;2.78;1.52;;;26.90;61.20;;;;;;6111235;23;20274;-84
2021/07/20 15:09:56;;;;;;;1.52;1.42;;;28.60;59.60;;;;;;6147978;23;20187;-88
2021/07/20 15:12:27;;;;;;;1.67;1.50;;;29.70;59.80;;;;;;6149443;23;20191;-86
2021/07/20 15:15:00;;;;;;;1.98;1.77;;;30.40;60.00;;;;;;6147247;23;20614;-87
2021/07/20 15:17:32;;;;;;;2.40;1.52;;;31.20;58.00;;;;;;6143089;23;20182;-89
2021/07/20 15:20:08;;;;;;;1.73;1.63;;;31.70;56.50;;;;;;6109303;23;20180;-87
2021/07/20 15:22:40;;;;;;;1.80;1.70;;;31.30;54.30;;;;;;6146144;23;20598;-88
2021/07/20 15:25:11;;;;;;;1.52;1.42;;;31.00;54.00;;;;;;6149728;23;20248;-87
2021/07/20 15:30:57;;;;;;;1.67;1.58;;;32.20;53.60;;;;;;6136994;23;20200;-87
2021/07/20 15:33:57;;;;;;;1.63;1.52;;;32.60;51.20;;;;;;6134555;23;20171;-88
2021/07/20 15:48:56;;;;;;;1.65;1.55;;;31.90;51.30;;;;;;6117530;23;20161;-83
2021/07/20 15:51:43;;;;;;;2.00;1.60;;;32.00;50.30;;;;;;6117392;23;20485;-85
2021/07/20 15:54:24;;;;;;;2.95;1.50;;;31.60;50.50;;;;;;6119518;23;20200;-89
2021/07/20 16:00:03;;;;;;;2.25;1.85;;;30.90;51.30;;;;;;6107240;23;20226;-88
2021/07/20 16:08:42;;;;;;;1.95;1.58;;;31.00;50.20;;;;;;6136122;23;20876;-88
2021/07/20 16:11:23;;;;;;;3.75;1.77;;;30.20;50.80;;;;;;6148310;23;20258;-88
2021/07/20 16:14:37;;;;;;;2.13;1.73;;;29.40;50.90;;;;;;6150664;23;20259;-89
2021/07/20 16:18:01;;;;;;;1.98;1.77;;;27.90;51.10;;;;;;6149049;23;20723;-89
2021/07/20 16:23:35;;;;;;;2.15;1.60;;;26.30;53.70;;;;;;6117925;23;20883;-88
2021/07/20 16:26:08;;;;;;;1.95;1.75;;;25.90;55.10;;;;;;6147275;23;20256;-89
2021/07/20 16:28:39;;;;;;;2.55;1.83;;;25.50;57.10;;;;;;6146454;23;20175;-88
2021/07/20 16:31:09;;;;;;;4.22;1.73;;;25.30;58.00;;;;;;6148472;23;20211;-87
2021/07/20 16:33:44;;;;;;;2.15;1.80;;;25.20;58.50;;;;;;6152167;23;20232;-87
2021/07/20 16:36:15;;;;;;;2.35;2.08;;;24.90;59.00;;;;;;6145658;23;20195;-88
2021/07/20 16:38:47;;;;;;;2.08;1.85;;;24.80;60.10;;;;;;6149428;23;20172;-86
2021/07/20 16:41:23;;;;;;;1.77;1.67;;;24.70;60.70;;;;;;6149492;23;20373;-87
2021/07/20 16:43:54;;;;;;;2.22;1.50;;;24.60;61.30;;;;;;6149149;23;20180;-85
2021/07/20 16:46:26;;;;;;;1.55;1.45;;;24.50;61.80;;;;;;6146709;23;20176;-90
2021/07/20 16:48:59;;;;;;;2.47;1.92;;;24.30;62.10;;;;;;6149160;23;20160;-86
2021/07/20 16:51:28;;;;;;;3.00;1.80;;;24.10;63.10;;;;;;6149243;23;20529;-85
2021/07/20 16:54:00;;;;;;;2.58;1.65;;;24.00;63.50;;;;;;6152602;23;20174;-86
2021/07/20 16:56:33;;;;;;;2.00;1.80;;;24.00;64.20;;;;;;6140648;23;20456;-85
2021/07/20 16:59:06;;;;;;;2.90;2.03;;;24.00;64.40;;;;;;6146008;23;20180;-88
2021/07/20 17:01:38;;;;;;;2.10;1.90;;;24.00;64.90;;;;;;6111510;23;20243;-87
2021/07/20 17:04:14;;;;;;;2.13;1.70;;;24.00;64.80;;;;;;6144357;23;20168;-85
2021/07/20 17:07:19;;;;;;;2.55;1.90;;;23.90;65.70;;;;;;6114013;23;20219;-87
2021/07/20 17:16:15;;;;;;;2.10;1.90;;;23.90;66.40;;;;;;6139496;23;20278;-87
2021/07/20 17:28:28;;;;;;;4.68;1.80;;;23.60;68.10;;;;;;6116306;23;20179;-84
2021/07/20 17:43:46;;;;;;;3.50;2.25;;;23.30;69.00;;;;;;6057287;23;20196;31
2021/07/20 17:46:25;;;;;;;3.97;1.98;;;23.20;69.70;;;;;;6135266;23;20211;-88
2021/07/20 17:49:00;;;;;;;3.25;2.17;;;23.10;69.90;;;;;;6142601;23;20163;-86
2021/07/20 17:51:39;;;;;;;2.60;2.15;;;23.10;70.40;;;;;;6128424;23;20207;-86
2021/07/20 17:54:16;;;;;;;2.03;1.83;;;23.00;70.30;;;;;;6140763;23;20168;-85
2021/07/20 17:57:05;;;;;;;2.15;1.85;;;23.00;70.80;;;;;;6140095;23;20440;-86
2021/07/20 17:59:34;;;;;;;2.67;2.13;;;22.90;71.20;;;;;;6138340;23;20182;-86
2021/07/20 18:02:04;;;;;;;5.22;2.03;;;22.90;71.20;;;;;;6131733;23;20165;-86
2021/07/20 18:04:33;;;;;;;3.47;2.17;;;22.90;70.70;;;;;;6128495;23;20477;-86
2021/07/20 18:07:02;;;;;;;3.33;1.90;;;22.90;71.00;;;;;;6125241;23;20248;-86
2021/07/20 18:09:32;;;;;;;4.18;2.03;;;22.90;70.60;;;;;;6130797;23;20643;-85
2021/07/20 18:12:02;;;;;;;2.30;1.60;;;22.90;70.80;;;;;;6147395;23;20199;-86
2021/07/20 18:14:31;;;;;;;4.03;2.40;;;22.90;70.60;;;;;;6109267;23;20270;-87
2021/07/20 18:17:01;;;;;;;2.28;2.05;;;22.80;70.80;;;;;;6149586;23;20168;-85
2021/07/20 18:19:30;;;;;;;2.83;1.80;;;22.80;70.90;;;;;;6150856;23;20219;-87
2021/07/20 18:21:59;;;;;;;2.90;2.33;;;22.70;71.00;;;;;;6153863;23;20167;-86
2021/07/20 18:24:28;;;;;;;2.57;2.33;;;22.60;71.20;;;;;;6145061;23;20161;-86
2021/07/20 18:26:58;;;;;;;3.13;2.22;;;22.60;71.30;;;;;;6145263;23;20168;-84
2021/07/20 18:29:27;;;;;;;2.10;2.00;;;22.50;71.60;;;;;;6113833;23;20180;-89
2021/07/20 18:31:56;;;;;;;2.50;2.30;;;22.50;71.60;;;;;;6115813;23;20238;-89
2021/07/20 18:34:28;;;;;;;2.70;2.00;;;22.50;71.80;;;;;;6116664;23;20196;-86
2021/07/20 18:36:58;;;;;;;2.25;2.05;;;22.40;72.00;;;;;;6146171;23;20165;-85
2021/07/20 18:39:33;;;;;;;2.30;2.10;;;22.40;71.70;;;;;;6137335;23;20203;-87
2021/07/20 18:42:05;;;;;;;2.40;2.20;;;22.30;71.90;;;;;;6147362;23;20184;-86
2021/07/20 18:44:40;;;;;;;4.50;2.30;;;22.40;72.20;;;;;;6108764;23;20207;-85
2021/07/20 18:47:10;;;;;;;3.13;2.20;;;22.40;72.50;;;;;;6101497;23;20190;-85
2021/07/20 18:49:39;;;;;;;4.30;2.53;;;22.30;72.40;;;;;;6084813;23;20437;-85
2021/07/20 18:52:09;;;;;;;3.78;2.47;;;22.20;72.70;;;;;;6100196;23;20200;-86
2021/07/20 18:54:40;;;;;;;4.47;2.40;;;22.10;73.00;;;;;;6097214;23;20416;-87
2021/07/20 18:57:11;;;;;;;4.50;2.47;;;22.00;73.70;;;;;;6091985;23;20177;-84
2021/07/20 18:59:40;;;;;;;3.50;2.50;;;22.00;73.80;;;;;;6092823;23;20181;-85
2021/07/20 19:02:10;;;;;;;2.80;2.27;;;21.90;74.20;;;;;;6059620;23;20173;-85
2021/07/20 19:04:40;;;;;;;4.37;2.53;;;21.90;75.20;;;;;;6092483;23;20190;-86
2021/07/20 19:07:09;;;;;;;2.73;2.40;;;21.80;75.50;;;;;;6093836;23;20493;-86
2021/07/20 19:09:39;;;;;;;4.73;2.50;;;21.70;76.10;;;;;;6095252;23;20177;-87
2021/07/20 19:12:11;;;;;;;4.17;2.63;;;21.70;76.80;;;;;;6098104;23;20510;-85
2021/07/20 19:17:40;;;;;;;6.43;2.80;;;21.60;77.60;;;;;;6076930;23;20334;-87
2021/07/20 19:20:13;;;;;;;2.70;2.50;;;21.70;77.70;;;;;;6118787;23;20635;-84
2021/07/20 19:22:46;;;;;;;3.00;2.70;;;21.70;78.00;;;;;;6121417;23;20191;-88
2021/07/20 19:25:16;;;;;;;2.77;2.57;;;21.60;78.20;;;;;;6124979;23;20458;-85
2021/07/20 19:27:49;;;;;;;3.13;2.80;;;21.60;78.60;;;;;;6114406;23;20179;-88
2021/07/20 19:30:19;;;;;;;2.67;2.47;;;21.60;78.70;;;;;;6116556;23;20187;-87
2021/07/20 19:32:49;;;;;;;3.70;2.70;;;21.60;78.80;;;;;;6108113;23;20193;-90
2021/07/20 19:35:29;;;;;;;3.97;2.90;;;21.40;79.10;;;;;;6120840;23;20419;-87
2021/07/20 19:43:42;;;;;;;3.57;3.20;;;21.40;79.80;;;;;;6134940;23;20194;-85
2021/07/20 19:46:12;;;;;;;4.93;3.13;;;21.30;80.10;;;;;;6154335;23;20172;-87
2021/07/20 19:48:43;;;;;;;3.43;2.70;;;21.30;79.90;;;;;;6107617;23;20180;-86
2021/07/20 19:51:14;;;;;;;3.03;2.73;;;21.30;80.10;;;;;;6131972;23;20200;-89
2021/07/20 19:53:44;;;;;;;4.73;3.10;;;21.20;80.20;;;;;;6106786;23;20172;-87
2021/07/20 19:56:18;;;;;;;4.27;2.80;;;21.20;80.30;;;;;;6134180;23;20188;-86
2021/07/20 19:58:49;;;;;;;5.73;2.60;;;21.20;80.70;;;;;;6129692;23;20207;-89
2021/07/20 20:01:19;;;;;;;4.60;2.60;;;21.10;80.40;;;;;;6147360;23;20161;-88
2021/07/20 20:04:17;;;;;;;3.00;2.63;;;21.10;80.80;;;;;;6145901;23;20524;-85
2021/07/20 20:06:47;;;;;;;4.63;2.70;;;21.10;81.00;;;;;;6129239;23;20247;-88
2021/07/20 20:09:18;;;;;;;6.23;2.90;;;21.10;81.00;;;;;;6147208;23;20160;-87
2021/07/20 20:11:50;;;;;;;4.43;2.63;;;21.20;81.20;;;;;;6142385;23;20212;-87
2021/07/20 20:14:21;;;;;;;4.27;2.70;;;21.10;81.00;;;;;;6155058;23;20165;-90
2021/07/20 20:16:51;;;;;;;4.53;2.97;;;21.00;81.40;;;;;;6151001;23;20174;-87
2021/07/20 20:19:20;;;;;;;3.47;2.90;;;21.00;81.60;;;;;;6156420;23;20148;-88
2021/07/20 20:21:50;;;;;;;4.53;2.60;;;20.90;81.80;;;;;;6118443;23;20258;-87
2021/07/20 20:24:20;;;;;;;2.97;2.53;;;20.90;82.00;;;;;;6155792;23;20169;-85
2021/07/20 20:26:49;;;;;;;3.20;2.90;;;20.80;82.20;;;;;;6153925;23;20176;-87
2021/07/20 20:29:20;;;;;;;2.87;2.50;;;20.70;82.30;;;;;;6139862;23;20335;-88
2021/07/20 20:31:51;;;;;;;3.43;2.63;;;20.70;82.60;;;;;;6151063;23;20167;-87
2021/07/20 20:34:22;;;;;;;3.57;2.80;;;20.70;82.60;;;;;;6150791;23;20152;-87
2021/07/20 20:36:52;;;;;;;2.87;2.67;;;20.70;82.60;;;;;;6150551;23;20168;-87
2021/07/20 20:39:27;;;;;;;5.23;2.67;;;20.70;82.80;;;;;;6151276;23;20164;-89
2021/07/20 20:41:57;;;;;;;4.10;2.80;;;20.60;82.80;;;;;;6151107;23;20152;-85
2021/07/20 20:44:33;;;;;;;4.07;3.10;;;20.70;82.90;;;;;;6150388;23;20156;-85
2021/07/20 20:47:07;;;;;;;4.13;2.70;;;20.70;82.90;;;;;;6111793;23;20262;-86
2021/07/20 20:49:39;;;;;;;2.63;2.43;;;20.70;83.00;;;;;;6154191;23;20183;-86
2021/07/20 20:52:10;;;;;;;3.10;2.70;;;20.60;83.10;;;;;;6156057;23;20220;-88
2021/07/20 20:54:41;;;;;;;3.70;2.77;;;20.60;83.40;;;;;;6153278;23;20172;-88
2021/07/20 20:57:11;;;;;;;3.20;2.90;;;20.60;83.30;;;;;;6134386;23;20188;-86
2021/07/20 20:59:43;;;;;;;4.40;2.90;;;20.60;83.30;;;;;;6100269;23;20240;-84
2021/07/20 21:02:13;;;;;;;4.27;3.00;;;20.50;83.50;;;;;;6138634;23;20165;-86
2021/07/20 21:07:29;;;;;;;5.50;2.83;;;20.40;83.90;;;;;;6137655;23;20176;-86
2021/07/20 21:10:11;;;;;;;3.40;3.10;;;20.40;84.20;;;;;;6106916;23;20513;-86
2021/07/20 21:12:44;;;;;;;4.47;2.97;;;20.40;84.00;;;;;;6152078;23;20184;-87
2021/07/20 21:15:16;;;;;;;3.27;3.00;;;20.40;84.10;;;;;;6157831;23;20152;-85
2021/07/20 21:17:45;;;;;;;3.80;3.00;;;20.30;84.30;;;;;;6153031;23;20160;-86
2021/07/20 21:20:15;;;;;;;3.33;2.60;;;20.30;84.30;;;;;;6150253;23;20224;-87
2021/07/20 21:22:44;;;;;;;4.67;2.97;;;20.30;84.10;;;;;;6146485;23;20207;-89
2021/07/20 21:25:14;;;;;;;3.77;3.00;;;20.30;83.90;;;;;;6141744;23;20168;-83
2021/07/20 21:27:43;;;;;;;3.87;2.60;;;20.30;84.20;;;;;;6137717;23;20171;-88
2021/07/20 21:30:16;;;;;;;3.27;2.67;;;20.30;84.10;;;;;;6115215;23;20192;-88
2021/07/20 21:32:48;;;;;;;5.13;3.10;;;20.30;84.00;;;;;;6140795;23;20199;-86
2021/07/20 21:35:21;;;;;;;2.87;2.67;;;20.30;83.90;;;;;;6135508;23;20173;-84
2021/07/20 21:37:49;;;;;;;4.60;3.00;;;20.20;83.90;;;;;;6142061;23;20153;-85
2021/07/20 21:40:19;;;;;;;4.83;3.13;;;20.20;84.00;;;;;;6148461;23;20187;-86
2021/07/20 21:42:49;;;;;;;3.13;2.90;;;20.20;84.10;;;;;;6129261;23;20174;-88
2021/07/20 21:45:24;;;;;;;3.60;3.27;;;20.20;84.10;;;;;;6131630;23;20161;-88
2021/07/20 21:47:54;;;;;;;3.10;2.80;;;20.20;84.00;;;;;;6124559;23;20928;-87
2021/07/20 21:50:24;;;;;;;4.37;2.97;;;20.20;84.10;;;;;;6140237;23;20152;-87
2021/07/20 21:52:57;;;;;;;3.13;2.83;;;20.20;84.00;;;;;;6132789;23;20211;-87
2021/07/20 21:55:27;;;;;;;4.20;2.70;;;20.20;84.00;;;;;;6151847;23;20415;-86
2021/07/20 21:57:57;;;;;;;4.03;2.90;;;20.20;83.80;;;;;;6148676;23;20159;-88
2021/07/20 22:00:29;;;;;;;3.63;2.77;;;20.20;84.00;;;;;;6134549;23;20179;-87
2021/07/20 22:03:01;;;;;;;3.43;2.93;;;20.20;83.90;;;;;;6133094;23;20210;-85
2021/07/20 22:05:32;;;;;;;3.57;2.90;;;20.20;83.90;;;;;;6130887;23;20165;-88
2021/07/20 22:08:02;;;;;;;3.93;2.93;;;20.20;83.80;;;;;;6117354;23;20199;-84
2021/07/20 22:10:34;;;;;;;3.50;3.20;;;20.20;84.20;;;;;;6124539;23;20184;-86
2021/07/20 22:13:04;;;;;;;4.83;2.80;;;20.20;84.30;;;;;;6128006;23;20242;-85
2021/07/20 22:15:37;;;;;;;5.10;3.80;;;20.10;84.30;;;;;;6085403;23;20200;-87
2021/07/20 22:18:07;;;;;;;4.53;3.30;;;20.20;84.00;;;;;;6095475;23;20177;-88
2021/07/20 22:20:39;;;;;;;4.87;3.27;;;20.20;84.20;;;;;;6104059;23;20494;-85
2021/07/20 22:23:15;;;;;;;4.70;3.60;;;20.20;84.10;;;;;;6099135;23;20181;-86
2021/07/20 22:25:47;;;;;;;4.13;3.60;;;20.20;84.20;;;;;;6115527;23;20176;-84
2021/07/20 22:28:17;;;;;;;4.87;3.20;;;20.20;84.30;;;;;;6107074;23;20176;-84
2021/07/20 22:30:48;;;;;;;5.57;3.63;;;20.20;84.50;;;;;;6124031;23;20172;-86
2021/07/20 22:33:19;;;;;;;4.43;3.37;;;20.20;84.30;;;;;;6068001;23;20629;-88
2021/07/20 22:35:51;;;;;;;4.00;3.50;;;20.10;84.50;;;;;;6105166;23;20240;-85
2021/07/20 22:38:22;;;;;;;3.80;3.40;;;20.10;84.80;;;;;;6116123;23;20161;-85
2021/07/20 22:40:52;;;;;;;5.63;3.60;;;20.00;84.80;;;;;;6118374;23;20165;-88
2021/07/20 22:43:23;;;;;;;4.23;3.60;;;20.00;85.00;;;;;;6092028;23;20189;-86
2021/07/20 22:45:57;;;;;;;7.33;3.53;;;20.00;85.00;;;;;;6097679;23;20161;-86
2021/07/20 22:48:28;;;;;;;4.23;3.77;;;20.00;85.20;;;;;;6094132;23;20161;-86
2021/07/20 22:50:57;;;;;;;4.30;3.27;;;20.00;85.20;;;;;;6096641;23;20260;-86
2021/07/20 22:53:26;;;;;;;5.37;3.90;;;20.00;85.40;;;;;;6095168;23;20196;-88
2021/07/20 22:55:56;;;;;;;4.97;3.90;;;20.00;85.50;;;;;;6097667;23;20177;-86
2021/07/20 22:58:27;;;;;;;5.20;3.63;;;20.10;85.30;;;;;;6093538;23;20189;-87
2021/07/20 23:01:01;;;;;;;5.30;3.40;;;20.10;85.50;;;;;;6099958;23;20173;-87
2021/07/20 23:03:33;;;;;;;4.30;3.90;;;20.10;85.20;;;;;;6121938;23;20153;-87
2021/07/20 23:06:04;;;;;;;5.73;3.50;;;20.10;85.20;;;;;;6106511;23;20187;-87
2021/07/20 23:08:33;;;;;;;5.67;4.10;;;20.10;85.30;;;;;;6094152;23;20182;-87
2021/07/20 23:11:02;;;;;;;4.33;3.90;;;20.10;85.40;;;;;;6101146;23;20175;-85
2021/07/20 23:13:31;;;;;;;5.03;4.10;;;20.00;85.40;;;;;;6096882;23;20200;-88
2021/07/20 23:16:02;;;;;;;5.07;4.17;;;20.10;85.40;;;;;;6068612;23;20259;-86
2021/07/20 23:18:34;;;;;;;6.87;3.83;;;20.00;85.30;;;;;;6091967;23;20352;-86
2021/07/20 23:21:06;;;;;;;4.97;4.23;;;20.10;85.40;;;;;;6096620;23;20176;-86
2021/07/20 23:23:35;;;;;;;4.50;4.10;;;20.10;85.40;;;;;;6060816;23;20177;-86
2021/07/20 23:26:05;;;;;;;5.13;4.20;;;20.10;85.40;;;;;;6103144;23;20173;-86
2021/07/20 23:28:35;;;;;;;5.87;4.70;;;20.00;85.30;;;;;;6110519;23;20181;-84
2021/07/20 23:31:08;;;;;;;5.50;4.50;;;19.90;85.20;;;;;;6112550;23;20181;-87
2021/07/20 23:33:38;;;;;;;5.20;4.50;;;19.80;85.30;;;;;;6100266;23;20232;-86
2021/07/20 23:36:09;;;;;;;5.70;4.87;;;19.80;85.50;;;;;;6100115;23;20177;-88
2021/07/20 23:38:40;;;;;;;6.10;4.87;;;19.70;85.80;;;;;;6110779;23;20173;-86
2021/07/20 23:41:09;;;;;;;7.73;4.83;;;19.70;85.60;;;;;;6115140;23;20178;-88
2021/07/20 23:43:40;;;;;;;8.33;4.77;;;19.70;85.50;;;;;;6117747;23;20196;-85
2021/07/20 23:46:10;;;;;;;6.07;4.47;;;19.60;85.40;;;;;;6127587;23;20153;-86
2021/07/20 23:48:39;;;;;;;6.00;4.23;;;19.60;85.60;;;;;;6126994;23;20160;-86
2021/07/20 23:51:07;;;;;;;6.33;4.77;;;19.70;85.60;;;;;;6127745;23;20165;-87
2021/07/20 23:53:37;;;;;;;6.50;4.50;;;19.70;85.40;;;;;;6086629;23;20173;-88
2021/07/20 23:56:06;;;;;;;4.77;4.27;;;19.70;85.40;;;;;;6123955;23;20167;-86
2021/07/20 23:58:37;;;;;;;6.17;4.40;;;19.60;85.20;;;;;;6124748;23;20344;-86
